Time,TemperatureF,DewpointF,PressureIn,WindDirection,WindDirectionDegrees,WindSpeedMPH,WindSpeedGustMPH,Humidity,HourlyPrecipIn,Conditions,Clouds,dailyrainin,SolarRadiationWatts/m^2,SoftwareType,DateUTC
2013-03-26 00:00:00,48.6,44.0,30.01,SW,219,1.0,3.0,85,0.00,,,0.00,0,weatherlink.com 1.10,2013-03-26 07:00:00,
2013-03-26 00:15:00,48.2,44.0,30.01,SSW,211,1.0,2.0,86,0.00,,,0.00,0,weatherlink.com 1.10,2013-03-26 07:15:00,
2013-03-26 00:30:00,48.0,44.0,30.00,WSW,245,0.0,2.0,85,0.00,,,0.00,0,weatherlink.com 1.10,2013-03-26 07:30:00,
2013-03-26 00:45:00,47.5,43.0,30.00,SW,234,0.0,2.0,85,0.00,,,0.00,0,weatherlink.com 1.10,2013-03-26 07:45:00,
2013-03-26 01:00:00,47.3,43.0,30.00,NW,311,0.0,1.0,85,0.00,,,0.00,0,weatherlink.com 1.10,2013-03-26 08:00:00,
2013-03-26 01:15:00,47.3,43.0,30.00,WNW,294,0.0,1.0,86,0.00,,,0.00,0,weatherlink.com 1.10,2013-03-26 08:15:00,
2013-03-26 01:30:00,47.7,44.0,30.00,West,261,0.0,2.0,86,0.00,,,0.00,0,weatherlink.com 1.10,2013-03-26 08:30:00,
2013-03-26 01:45:00,48.0,44.0,30.00,West,273,0.0,3.0,86,0.00,,,0.00,0,weatherlink.com 1.10,2013-03-26 08:45:00,
2013-03-26 02:00:00,47.7,44.0,30.00,SW,229,0.0,1.0,86,0.00,,,0.00,0,weatherlink.com 1.10,2013-03-26 09:00:00,
2013-03-26 02:15:00,47.2,43.0,30.00,SSW,213,0.0,1.0,85,0.00,,,0.00,0,weatherlink.com 1.10,2013-03-26 09:15:00,
2013-03-26 02:30:00,47.2,43.0,29.99,ESE,122,0.0,1.0,85,0.00,,,0.00,0,weatherlink.com 1.10,2013-03-26 09:30:00,
2013-03-26 02:45:00,47.3,44.0,29.99,ESE,123,0.0,3.0,87,0.00,,,0.00,0,weatherlink.com 1.10,2013-03-26 09:45:00,
2013-03-26 03:00:00,47.4,44.0,29.98,ESE,110,5.0,7.0,87,0.00,,,0.00,0,weatherlink.com 1.10,2013-03-26 10:00:00,
2013-03-26 03:15:00,47.4,44.0,29.99,ESE,121,2.0,4.0,87,0.00,,,0.00,0,weatherlink.com 1.10,2013-03-26 10:15:00,
2013-03-26 03:30:00,47.3,44.0,29.98,SE,130,2.0,4.0,88,0.00,,,0.00,0,weatherlink.com 1.10,2013-03-26 10:30:00,
2013-03-26 03:46:00,47.2,44.0,29.98,SE,127,3.0,4.0,89,0.00,,,0.00,0,weatherlink.com 1.10,2013-03-26 10:46:00,
2013-03-26 04:01:00,47.3,44.0,29.98,ESE,115,5.0,7.0,89,0.00,,,0.00,0,weatherlink.com 1.10,2013-03-26 11:01:00,
2013-03-26 04:16:00,47.1,44.0,29.98,ESE,123,2.0,4.0,89,0.00,,,0.00,0,weatherlink.com 1.10,2013-03-26 11:16:00,
2013-03-26 04:31:00,47.0,44.0,29.98,ESE,113,3.0,7.0,90,0.00,,,0.00,0,weatherlink.com 1.10,2013-03-26 11:31:00,
2013-03-26 04:46:00,46.8,44.0,29.98,ESE,121,2.0,5.0,91,0.00,,,0.00,0,weatherlink.com 1.10,2013-03-26 11:46:00,
2013-03-26 05:01:00,46.8,44.0,29.98,SSE,153,3.0,5.0,91,0.00,,,0.00,0,weatherlink.com 1.10,2013-03-26 12:01:00,
2013-03-26 05:16:00,46.7,44.0,29.98,ESE,122,2.0,6.0,91,0.00,,,0.00,0,weatherlink.com 1.10,2013-03-26 12:16:00,
2013-03-26 05:46:00,46.7,44.0,29.98,SE,130,3.0,4.0,91,0.00,,,0.00,0,weatherlink.com 1.10,2013-03-26 12:46:00,
2013-03-26 06:01:00,46.7,44.0,29.98,SE,128,2.0,5.0,91,0.00,,,0.00,0,weatherlink.com 1.10,2013-03-26 13:01:00,
2013-03-26 07:01:00,46.1,44.0,29.99,SSW,196,0.0,2.0,91,0.00,,,0.00,0,weatherlink.com 1.10,2013-03-26 14:01:00,
2013-03-26 07:16:00,45.4,43.0,30.00,SSW,196,0.0,0.0,92,0.00,,,0.00,0,weatherlink.com 1.10,2013-03-26 14:16:00,
2013-03-26 07:46:00,45.4,43.0,30.00,NNW,330,0.0,1.0,92,0.00,,,0.00,0,weatherlink.com 1.10,2013-03-26 14:46:00,
2013-03-26 08:01:00,45.5,43.0,30.00,NNW,329,0.0,1.0,91,0.00,,,0.00,0,weatherlink.com 1.10,2013-03-26 15:01:00,
2013-03-26 08:31:00,47.8,43.0,30.00,SW,229,0.0,1.0,84,0.00,,,0.00,0,weatherlink.com 1.10,2013-03-26 15:31:00,
2013-03-26 08:46:00,49.2,44.0,30.00,WNW,286,0.0,2.0,82,0.00,,,0.00,0,weatherlink.com 1.10,2013-03-26 15:46:00,
2013-03-26 09:01:00,50.6,44.0,30.00,SW,225,0.0,2.0,79,0.00,,,0.00,0,weatherlink.com 1.10,2013-03-26 16:01:00,
2013-03-26 09:16:00,51.8,44.0,30.00,SSE,161,0.0,2.0,76,0.00,,,0.00,0,weatherlink.com 1.10,2013-03-26 16:16:00,
2013-03-26 09:31:00,52.8,45.0,30.00,WSW,254,0.0,1.0,74,0.00,,,0.00,0,weatherlink.com 1.10,2013-03-26 16:31:00,
2013-03-26 09:46:00,53.4,45.0,30.00,WNW,282,1.0,3.0,73,0.00,,,0.00,0,weatherlink.com 1.10,2013-03-26 16:46:00,
2013-03-26 10:01:00,54.6,45.0,30.00,SSW,193,0.0,3.0,71,0.00,,,0.00,0,weatherlink.com 1.10,2013-03-26 17:01:00,
2013-03-26 10:16:00,55.5,45.0,30.00,SSW,202,1.0,4.0,69,0.00,,,0.00,0,weatherlink.com 1.10,2013-03-26 17:16:00,
2013-03-26 10:31:00,56.3,46.0,30.00,SSW,199,3.0,5.0,68,0.00,,,0.00,0,weatherlink.com 1.10,2013-03-26 17:31:00,
2013-03-26 10:46:00,56.5,46.0,30.00,SE,135,0.0,4.0,67,0.00,,,0.00,0,weatherlink.com 1.10,2013-03-26 17:46:00,
2013-03-26 11:01:00,57.5,46.0,30.00,ESE,102,0.0,3.0,66,0.00,,,0.00,0,weatherlink.com 1.10,2013-03-26 18:01:00,
2013-03-26 11:31:00,57.9,47.0,30.00,SE,135,3.0,5.0,67,0.00,,,0.00,0,weatherlink.com 1.10,2013-03-26 18:31:00,
2013-03-26 11:47:00,59.1,48.0,30.00,SSW,202,4.0,6.0,66,0.00,,,0.00,0,weatherlink.com 1.10,2013-03-26 18:47:00,
2013-03-26 12:02:00,58.6,47.0,30.01,SW,227,2.0,6.0,65,0.00,,,0.00,0,weatherlink.com 1.10,2013-03-26 19:02:00,
2013-03-26 12:16:00,57.9,48.0,30.01,SW,227,7.0,10.0,69,0.00,,,0.00,0,weatherlink.com 1.10,2013-03-26 19:16:00,
2013-03-26 12:32:00,58.7,48.0,30.00,SW,214,3.0,8.0,67,0.00,,,0.00,0,weatherlink.com 1.10,2013-03-26 19:32:00,
2013-03-26 12:47:00,59.4,48.0,30.00,ESE,120,3.0,8.0,67,0.00,,,0.00,0,weatherlink.com 1.10,2013-03-26 19:47:00,
2013-03-26 13:02:00,58.6,48.0,30.00,South,170,4.0,9.0,67,0.00,,,0.00,0,weatherlink.com 1.10,2013-03-26 20:02:00,
2013-03-26 13:17:00,58.2,48.0,30.00,SSE,168,5.0,9.0,70,0.00,,,0.00,0,weatherlink.com 1.10,2013-03-26 20:17:00,
2013-03-26 13:32:00,58.5,49.0,30.00,SSW,213,7.0,10.0,70,0.00,,,0.00,0,weatherlink.com 1.10,2013-03-26 20:32:00,
2013-03-26 13:47:00,59.0,48.0,30.00,SE,145,4.0,10.0,68,0.00,,,0.00,0,weatherlink.com 1.10,2013-03-26 20:47:00,
2013-03-26 14:02:00,59.5,49.0,29.99,South,187,2.0,10.0,68,0.00,,,0.00,0,weatherlink.com 1.10,2013-03-26 21:02:00,
2013-03-26 14:17:00,59.6,50.0,29.98,South,187,6.0,13.0,71,0.00,,,0.00,0,weatherlink.com 1.10,2013-03-26 21:17:00,
2013-03-26 14:32:00,58.7,49.0,29.98,SSW,210,4.0,11.0,70,0.00,,,0.00,0,weatherlink.com 1.10,2013-03-26 21:32:00,
2013-03-26 14:47:00,59.2,49.0,29.98,SSW,195,5.0,10.0,69,0.00,,,0.00,0,weatherlink.com 1.10,2013-03-26 21:47:00,
2013-03-26 15:02:00,58.5,50.0,29.97,SSW,194,5.0,9.0,73,0.00,,,0.00,0,weatherlink.com 1.10,2013-03-26 22:02:00,
2013-03-26 15:17:00,59.8,51.0,29.97,South,175,4.0,12.0,72,0.00,,,0.00,0,weatherlink.com 1.10,2013-03-26 22:17:00,
2013-03-26 15:32:00,59.6,50.0,29.97,South,176,7.0,11.0,70,0.00,,,0.00,0,weatherlink.com 1.10,2013-03-26 22:32:00,
2013-03-26 15:47:00,59.9,50.0,29.96,ESE,119,7.0,10.0,70,0.00,,,0.00,0,weatherlink.com 1.10,2013-03-26 22:47:00,
2013-03-26 16:02:00,60.0,50.0,29.96,SSE,148,6.0,12.0,70,0.00,,,0.00,0,weatherlink.com 1.10,2013-03-26 23:02:00,
2013-03-26 16:17:00,60.7,50.0,29.96,East,80,5.0,10.0,69,0.00,,,0.00,0,weatherlink.com 1.10,2013-03-26 23:17:00,
2013-03-26 16:32:00,59.9,50.0,29.95,SSE,159,4.0,11.0,70,0.00,,,0.00,0,weatherlink.com 1.10,2013-03-26 23:32:00,
2013-03-26 16:47:00,60.0,51.0,29.95,SSE,153,4.0,11.0,71,0.00,,,0.00,0,weatherlink.com 1.10,2013-03-26 23:47:00,
2013-03-26 17:02:00,60.4,51.0,29.95,SE,142,2.0,10.0,70,0.00,,,0.00,0,weatherlink.com 1.10,2013-03-27 00:02:00,
2013-03-26 17:17:00,59.7,50.0,29.94,SE,134,5.0,10.0,70,0.00,,,0.00,0,weatherlink.com 1.10,2013-03-27 00:17:00,
2013-03-26 17:32:00,59.3,50.0,29.94,SE,133,6.0,10.0,70,0.00,,,0.00,0,weatherlink.com 1.10,2013-03-27 00:32:00,
2013-03-26 17:47:00,59.5,49.0,29.94,ESE,121,4.0,7.0,69,0.00,,,0.00,0,weatherlink.com 1.10,2013-03-27 00:47:00,
2013-03-26 18:02:00,59.0,49.0,29.94,ESE,115,3.0,10.0,69,0.00,,,0.00,0,weatherlink.com 1.10,2013-03-27 01:02:00,
2013-03-26 18:17:00,57.8,48.0,29.94,ESE,119,7.0,10.0,70,0.00,,,0.00,0,weatherlink.com 1.10,2013-03-27 01:17:00,
2013-03-26 18:32:00,55.5,48.0,29.95,ESE,120,11.0,11.0,76,0.00,,,0.00,0,weatherlink.com 1.10,2013-03-27 01:32:00,
2013-03-26 18:47:00,55.1,48.0,29.95,South,184,4.0,12.0,77,0.00,,,0.00,0,weatherlink.com 1.10,2013-03-27 01:47:00,
2013-03-26 19:02:00,54.1,48.0,29.95,SE,129,2.0,9.0,80,0.00,,,0.00,0,weatherlink.com 1.10,2013-03-27 02:02:00,
2013-03-26 19:17:00,53.4,48.0,29.95,East,94,3.0,7.0,81,0.00,,,0.00,0,weatherlink.com 1.10,2013-03-27 02:17:00,
2013-03-26 19:32:00,53.0,47.0,29.95,ESE,107,4.0,9.0,81,0.00,,,0.00,0,weatherlink.com 1.10,2013-03-27 02:32:00,
2013-03-26 19:47:00,52.9,48.0,29.95,SE,126,4.0,8.0,82,0.00,,,0.00,0,weatherlink.com 1.10,2013-03-27 02:47:00,
2013-03-26 20:02:00,52.6,47.0,29.95,East,86,5.0,9.0,82,0.00,,,0.00,0,weatherlink.com 1.10,2013-03-27 03:02:00,
2013-03-26 20:17:00,52.6,48.0,29.96,ESE,121,3.0,9.0,83,0.00,,,0.00,0,weatherlink.com 1.10,2013-03-27 03:17:00,
2013-03-26 20:32:00,52.4,47.0,29.96,ESE,123,7.0,7.0,82,0.00,,,0.00,0,weatherlink.com 1.10,2013-03-27 03:32:00,
2013-03-26 20:47:00,52.2,47.0,29.96,SE,133,3.0,8.0,83,0.00,,,0.00,0,weatherlink.com 1.10,2013-03-27 03:47:00,
2013-03-26 21:02:00,51.8,47.0,29.97,SE,132,3.0,8.0,84,0.00,,,0.00,0,weatherlink.com 1.10,2013-03-27 04:02:00,
2013-03-26 21:17:00,51.4,47.0,29.97,ESE,113,4.0,5.0,86,0.00,,,0.00,0,weatherlink.com 1.10,2013-03-27 04:17:00,
2013-03-26 21:32:00,51.0,47.0,29.97,SSE,164,4.0,5.0,87,0.00,,,0.00,0,weatherlink.com 1.10,2013-03-27 04:32:00,
2013-03-26 21:47:00,50.8,47.0,29.97,East,95,3.0,4.0,88,0.00,,,0.00,0,weatherlink.com 1.10,2013-03-27 04:47:00,
2013-03-26 22:17:00,50.4,47.0,29.98,ESE,121,4.0,7.0,89,0.00,,,0.00,0,weatherlink.com 1.10,2013-03-27 05:17:00,
2013-03-26 22:32:00,50.2,47.0,29.98,ESE,121,2.0,3.0,89,0.00,,,0.00,0,weatherlink.com 1.10,2013-03-27 05:32:00,
2013-03-26 22:47:00,50.1,47.0,29.97,ESE,115,0.0,3.0,89,0.00,,,0.00,0,weatherlink.com 1.10,2013-03-27 05:47:00,
2013-03-26 23:02:00,49.9,47.0,29.98,SSE,156,1.0,2.0,89,0.00,,,0.00,0,weatherlink.com 1.10,2013-03-27 06:02:00,
2013-03-26 23:17:00,49.9,47.0,29.98,ESE,121,2.0,4.0,88,0.00,,,0.00,0,weatherlink.com 1.10,2013-03-27 06:17:00,
2013-03-26 23:32:00,49.9,47.0,29.98,SE,127,3.0,7.0,88,0.00,,,0.00,0,weatherlink.com 1.10,2013-03-27 06:32:00,
2013-03-26 23:47:00,49.8,46.0,29.98,SE,128,2.0,5.0,87,0.00,,,0.00,0,weatherlink.com 1.10,2013-03-27 06:47:00,